Saskatoon John G. Diefenbaker International Airport
CYXE : now visible

Airfield :











YOU CAN JOIN US ON...

 
LOGIN :

Register | Disclaimer

   EN    FR    IT 

 









Legend :    VFR   Marginal VFR   IFR   Intensive IFR   Very Intensive IFR
Visi :
Ceiling :
>= 8 km
>= 3000ft
5 to 8 km
1000 to 3000 ft
1500m to 5 km
500 to 1000 ft
800 to 1500m
200 to 500 ft
< 800m
< 200 ft
Symbols :   Thunderstorms  Fog  Heavy snow  Heavy precipitations  Wind > 20 kt






- Airport Elevation : 1653 ft
- IATA code : YXE


CYXE - Saskatoon John G. Diefenbaker International

CURRENT METAR :
  • 291440Z 27006KT 3/8SM R09/5000FT/N FZFG VV001 M07/M08 A3008 RMK FG8 SLP220

EXPIRED METARs :
  • 291423Z 30007KT 1/2SM R09/5000VP6000FT/N FZFG VV002 M07/M07 A3008 RMK FG8 SLP220
  • 291400Z 29005KT 1SM R09/6000FT/N BR VV002 M06/M07 A3008 RMK FG8 SLP220
  • 291300Z 29003KT 5SM BR OVC003 M06/M07 A3007 RMK ST8 SLP218
  • 291231Z 25008KT 3SM BR OVC003 M06/M07 A3007 RMK ST8 SLP216
  • 291222Z 26006KT 2 1/2SM BR OVC002 M06/M07 A3006 RMK ST8 SLP215
  • 291200Z 26007KT 1 1/4SM BR VV002 M06/M06 A3006 RMK FG8 SLP213

TAF AMD TAF CYXE
Valid from the 29 at 14:00 until the 30 at 12:00 UTC


291452Z 2914/3012 27006KT 3/4SM BR OVC002
TEMPO 2914/2916 1/4SM FZFG VV001
FM291600 27006KT 3/4SM BR OVC002
TEMPO 2916/2919 2SM BR OVC006
FM291900 21008KT 2SM BR OVC004
TEMPO 2919/2921 5SM BR OVC006
FM292100 18010KT 5SM BR OVC006
TEMPO 2921/3007 6SM BR OVC010
BECMG 2923/3001 16010KT
FM300700 18010KT P6SM SCT010 BKN180
FM301000 30012KT 6SM -SN SCT006 OVC025
TEMPO 3010/3012 11/2SM -SN BKN006 OVC020 RMK NXT FCST BY 291800Z



MET'MAP, your aeronautical weather chart ! - Copyright ORBIFLY December 2007 - Disclaimer

ORBIFLY MET'MAP TEAM :

Programming & Development : Alexandra Zaïnal
Concept & original design : Baudouin d'Aumeries
Assistance for programming : Marc-Olivier Méhu
Technical & hardware support : Manuel Goepfert

Contact : metmap@orbifly.com




SOURCES & CREDITS :

   NOAA       Earth
Advisory